• Join FlightAware (Why Join?)
  • Login
  • US Flag 
12:07PM EDT


 

Airport Tracker/Info


-or-


 

Live Flight TrackerFlight Track Log ✈ SAS2710 ✈ 23-Apr-2013 ✈ EKCH / CPH - EFTU / TKU

Flight Track Log - Related Links

Times and Time Zones

All times are in EDT time to prevent confusion due to time zone crossing. See the SAS2710 flight status page for this flight to view local times or setup timezone preferences in your user account.

Time Position Orientation Groundspeed Altitude Reporting Facility
EDT Latitude Longitude Course Direction KTS MPH feet Rate Location/Type
05:00PM 55.8702 13.0627 42° Northeast  Level Estimated
05:01PM 55.9540 13.1995 42° Northeast  Level Estimated
05:02PM 56.0376 13.3368 43° Northeast  Level Estimated
05:03PM 56.1211 13.4748 43° Northeast  Level Estimated
05:04PM 56.2045 13.6133 43° Northeast  Level Estimated
05:05PM 56.2877 13.7525 43° Northeast  Level Estimated
05:06PM 56.3707 13.8922 43° Northeast  Level Estimated
05:07PM 56.4535 14.0326 43° Northeast  Level Estimated
05:08PM 56.5363 14.1736 43° Northeast  Level Estimated
05:09PM 56.6188 14.3152 43° Northeast  Level Estimated
05:10PM 56.7012 14.4574 43° Northeast  Level Estimated
05:11PM 56.7834 14.6002 44° Northeast  Level Estimated
05:12PM 56.8655 14.7437 44° Northeast  Level Estimated
05:13PM 56.9473 14.8878 44° Northeast  Level Estimated
05:14PM 57.0291 15.0325 44° Northeast  Level Estimated
05:15PM 57.1106 15.1779 44° Northeast  Level Estimated
05:16PM 57.1920 15.3239 44° Northeast  Level Estimated
05:17PM 57.2733 15.4705 44° Northeast  Level Estimated
05:18PM 57.3543 15.6179 44° Northeast  Level Estimated
05:19PM 57.4352 15.7658 45° Northeast  Level Estimated
05:20PM 57.5159 15.9144 45° Northeast  Level Estimated
05:21PM 57.5964 16.0637 45° Northeast  Level Estimated
05:22PM 57.6768 16.2136 45° Northeast  Level Estimated
05:23PM 57.7569 16.3642 45° Northeast  Level Estimated
05:24PM 57.8369 16.5154 45° Northeast  Level Estimated
05:25PM 57.9167 16.6674 45° Northeast  Level Estimated
05:26PM 57.9964 16.8200 45° Northeast  Level Estimated
05:27PM 58.0758 16.9733 46° Northeast  Level Estimated
05:28PM 58.1551 17.1273 46° Northeast  Level Estimated
05:29PM 58.2341 17.2819 46° Northeast  Level Estimated
05:30PM 58.3130 17.4373 46° Northeast  Level Estimated
05:31PM 58.4051 17.6199 46° Northeast  Level Estimated
05:32PM 58.4968 17.8034 46° Northeast  Level Estimated
05:33PM 58.5884 17.9879 46° Northeast  Level Estimated
05:34PM 58.6796 18.1734 47° Northeast  Level Estimated
05:35PM 58.7706 18.3599 47° Northeast  Level Estimated
05:36PM 58.8613 18.5473 47° Northeast  Level Estimated
05:37PM 58.9518 18.7358 47° Northeast  Level Estimated
05:38PM 59.0419 18.9252 47° Northeast  Level Estimated
05:39PM 59.1318 19.1156 47° Northeast  Level Estimated
05:40PM 59.2214 19.3070 48° Northeast  Level Estimated
05:41PM 59.3107 19.4994 48° Northeast  Level Estimated
05:42PM 59.3998 19.6928 48° Northeast  Level Estimated
05:43PM 59.4885 19.8873 48° Northeast  Level Estimated
05:44PM 59.5770 20.0827 48° Northeast  Level Estimated
05:45PM 59.6652 20.2792 48° Northeast  Level Estimated
05:46PM 59.7530 20.4767 49° Northeast  Level Estimated
05:47PM 59.8406 20.6753 49° Northeast  Level Estimated
05:48PM 59.9279 20.8749 49° Northeast  Level Estimated
05:49PM 60.0149 21.0756 49° Northeast  Level Estimated
05:50PM 60.1015 21.2773 49° Northeast  Level Estimated
05:51PM 60.1879 21.4801 49° Northeast  Level Estimated
05:52PM 60.2739 21.6840 50° Northeast  Level Estimated
05:53PM 60.3597 21.8889 50° Northeast  Level Estimated
05:54PM 60.4451 22.0949 50° Northeast  Level Estimated
05:55PM 60.5141 22.2628 50° Northeast  Level Estimated
05:56PM 60.5141 22.2628 334° Northwest  Level Estimated
05:57PM 60.5141 22.2628 334° Northwest  Level Estimated
05:58PM 60.5141 22.2628 334° Northwest  Level Estimated
05:59PM 60.5141 22.2628 334° Northwest  Level Estimated
06:00PM 60.5141 22.2628 334° Northwest  Level Estimated
06:01PM 60.5141 22.2628 334° Northwest  Level Estimated
06:02PM 60.5141 22.2628 334° Northwest  Level Estimated
06:03PM 60.5141 22.2628 334° Northwest  Level Estimated
06:04PM 60.5141 22.2628 334° Northwest  Level Estimated
06:05PM 60.5141 22.2628 334° Northwest  Level Estimated
06:06PM 60.5141 22.2628 334° Northwest  Level Estimated